Time;durP1;ratioP1;P1;durP2;ratioP2;P2;SDS_P1;SDS_P2;PMS_P1;PMS_P2;Temp;Humidity;BMP_temperature;BMP_pressure;BME280_temperature;BME280_humidity;BME280_pressure;Samples;Min_cycle;Max_cycle;Signal;HPM_P1;HPM_P2
2021/10/13 00:02:11;;;;;;;;;;;2.70;98.70;;;;;;4991426;28;20280;-68
2021/10/13 00:04:37;;;;;;;;;;;2.80;98.80;;;;;;4991434;28;19914;-68
2021/10/13 00:07:02;;;;;;;;;;;2.70;98.70;;;;;;4998487;28;20156;-67
2021/10/13 00:09:28;;;;;;;;;;;2.70;98.80;;;;;;5004058;28;20318;-68
2021/10/13 00:11:53;;;;;;;;;;;2.70;98.80;;;;;;4992793;28;19909;-67
2021/10/13 00:14:19;;;;;;;;;;;2.70;98.80;;;;;;4990056;28;20012;-67
2021/10/13 00:16:52;;;;;;;;;;;2.70;98.70;;;;;;4995433;28;19913;-68
2021/10/13 00:19:19;;;;;;;;;;;2.70;98.70;;;;;;5000126;28;19910;-68
2021/10/13 00:21:44;;;;;;;;;;;2.60;98.70;;;;;;4998014;28;20350;-68
2021/10/13 00:24:09;;;;;;;;;;;2.60;98.70;;;;;;4990141;28;19945;-68
2021/10/13 00:26:35;;;;;;;;;;;2.50;98.60;;;;;;4995631;28;19913;-69
2021/10/13 00:29:01;;;;;;;;;;;2.50;98.70;;;;;;4996399;28;20401;-68
2021/10/13 00:31:26;;;;;;;;;;;2.50;98.70;;;;;;4994877;28;20093;-68
2021/10/13 00:33:51;;;;;;;;;;;2.50;98.80;;;;;;5002638;28;19914;-68
2021/10/13 00:36:17;;;;;;;;;;;2.50;98.80;;;;;;4999475;28;19992;-69
2021/10/13 00:38:42;;;;;;;;;;;2.50;98.80;;;;;;4996106;28;19918;-68
2021/10/13 00:41:08;;;;;;;;;;;2.50;98.80;;;;;;4994371;28;19948;-68
2021/10/13 00:43:33;;;;;;;;;;;2.50;98.70;;;;;;4996872;28;20020;-68
2021/10/13 00:45:59;;;;;;;;;;;2.50;98.70;;;;;;4990021;28;20356;-66
2021/10/13 00:48:24;;;;;;;;;;;2.50;98.70;;;;;;4999258;28;19974;-68
2021/10/13 00:50:50;;;;;;;;;;;2.50;98.80;;;;;;5000282;28;19909;-68
2021/10/13 00:53:16;;;;;;;;;;;2.60;98.80;;;;;;5013907;28;20093;-68
2021/10/13 00:55:41;;;;;;;;;;;2.60;98.80;;;;;;5002131;28;19913;-68
2021/10/13 00:58:07;;;;;;;;;;;2.60;98.70;;;;;;4991035;28;19924;-68
2021/10/13 01:00:33;;;;;;;;;;;2.50;98.70;;;;;;4991667;28;19968;-68
2021/10/13 01:03:13;;;;;;;;;;;2.60;98.80;;;;;;4986632;28;19917;-68
2021/10/13 01:05:39;;;;;;;;;;;2.50;98.60;;;;;;4995219;28;20149;-68
2021/10/13 01:08:23;;;;;;;;;;;2.40;98.60;;;;;;4998185;28;20379;-68
2021/10/13 01:10:58;;;;;;;;;;;2.40;98.60;;;;;;4990779;28;20010;-68
2021/10/13 01:13:32;;;;;;;;;;;2.40;98.60;;;;;;4997236;28;19917;-68
2021/10/13 01:16:03;;;;;;;;;;;2.40;98.60;;;;;;4997146;28;19959;-68
2021/10/13 01:18:41;;;;;;;;;;;2.30;98.60;;;;;;5002470;28;20282;-71
2021/10/13 01:21:25;;;;;;;;;;;2.30;98.60;;;;;;5000985;28;19924;-71
2021/10/13 01:24:09;;;;;;;;;;;2.40;98.60;;;;;;4993964;28;19917;-71
2021/10/13 01:26:35;;;;;;;;;;;2.40;98.60;;;;;;4998371;28;19920;-68
2021/10/13 01:29:02;;;;;;;;;;;2.30;98.50;;;;;;4991776;28;19913;-68
2021/10/13 01:31:36;;;;;;;;;;;2.30;98.50;;;;;;5003812;28;20367;-68
2021/10/13 01:34:05;;;;;;;;;;;2.30;98.50;;;;;;5001481;28;19917;-68
2021/10/13 01:36:36;;;;;;;;;;;2.30;98.50;;;;;;4990172;28;19917;-67
2021/10/13 01:39:02;;;;;;;;;;;2.30;98.50;;;;;;4993428;28;20000;-68
2021/10/13 01:41:29;;;;;;;;;;;2.30;98.50;;;;;;4994235;28;19914;-68
2021/10/13 01:43:57;;;;;;;;;;;2.20;98.40;;;;;;4995570;28;19913;-67
2021/10/13 01:46:24;;;;;;;;;;;2.20;98.50;;;;;;4993662;28;20169;-68
2021/10/13 01:48:51;;;;;;;;;;;2.20;98.50;;;;;;5003923;28;19909;-67
2021/10/13 01:51:17;;;;;;;;;;;2.20;98.50;;;;;;4993747;28;19943;-68
2021/10/13 01:53:43;;;;;;;;;;;2.10;98.50;;;;;;4997278;28;20328;-68
2021/10/13 01:56:09;;;;;;;;;;;2.10;98.50;;;;;;4997797;28;19920;-68
2021/10/13 01:58:35;;;;;;;;;;;2.10;98.60;;;;;;4995609;28;19918;-68
2021/10/13 02:01:02;;;;;;;;;;;2.10;98.60;;;;;;4996406;28;19909;-68
2021/10/13 02:03:28;;;;;;;;;;;2.10;98.70;;;;;;5001085;28;19971;-69
2021/10/13 02:05:57;;;;;;;;;;;2.10;98.60;;;;;;4999209;28;19909;-68
2021/10/13 02:08:23;;;;;;;;;;;2.10;98.60;;;;;;5003197;28;19916;-68
2021/10/13 02:10:50;;;;;;;;;;;2.00;98.50;;;;;;4994337;28;19971;-68
2021/10/13 02:13:16;;;;;;;;;;;2.00;98.60;;;;;;4998657;28;19917;-68
2021/10/13 02:15:43;;;;;;;;;;;2.00;98.60;;;;;;4993028;28;19909;-68
2021/10/13 02:18:12;;;;;;;;;;;1.90;98.60;;;;;;4988244;28;19975;-69
2021/10/13 02:20:37;;;;;;;;;;;1.90;98.60;;;;;;4988199;28;19909;-67
2021/10/13 02:23:04;;;;;;;;;;;1.80;98.60;;;;;;4991705;28;20283;-67
2021/10/13 02:25:31;;;;;;;;;;;1.90;98.60;;;;;;4990350;28;19913;-68
2021/10/13 02:28:00;;;;;;;;;;;1.80;98.70;;;;;;4998375;28;20000;-68
2021/10/13 02:30:26;;;;;;;;;;;1.90;98.70;;;;;;4996383;28;20004;-68
2021/10/13 02:32:51;;;;;;;;;;;1.80;98.60;;;;;;5002016;28;20332;-68
2021/10/13 02:35:17;;;;;;;;;;;1.80;98.70;;;;;;5007661;28;19909;-68
2021/10/13 02:37:42;;;;;;;;;;;1.80;98.70;;;;;;5004555;28;19921;-68
2021/10/13 02:40:08;;;;;;;;;;;1.90;98.70;;;;;;4992431;28;19963;-68
2021/10/13 02:42:34;;;;;;;;;;;1.90;98.70;;;;;;4993477;28;21687;-68
2021/10/13 02:45:00;;;;;;;;;;;1.90;98.80;;;;;;4994485;28;20461;-68
2021/10/13 02:47:35;;;;;;;;;;;1.90;98.70;;;;;;5000808;28;20016;-68
2021/10/13 02:50:19;;;;;;;;;;;1.90;98.70;;;;;;4993016;28;19909;-68
2021/10/13 02:53:02;;;;;;;;;;;1.90;98.70;;;;;;5001961;28;20283;-68
2021/10/13 02:55:31;;;;;;;;;;;1.80;98.70;;;;;;5002001;28;19917;-67
2021/10/13 02:58:09;;;;;;;;;;;1.90;98.80;;;;;;4995036;28;19909;-69
2021/10/13 03:00:35;;;;;;;;;;;1.80;98.70;;;;;;5001981;28;19913;-68
2021/10/13 03:03:23;;;;;;;;;;;1.80;98.70;;;;;;4996264;28;19971;-68
2021/10/13 03:05:49;;;;;;;;;;;1.80;98.70;;;;;;4999027;28;19909;-68
2021/10/13 03:08:15;;;;;;;;;;;1.80;98.70;;;;;;5000958;28;19925;-67
2021/10/13 03:10:44;;;;;;;;;;;1.70;98.80;;;;;;4991828;28;19913;-67
2021/10/13 03:13:11;;;;;;;;;;;1.70;98.70;;;;;;5006573;28;19913;-69
2021/10/13 03:15:38;;;;;;;;;;;1.70;98.80;;;;;;4995122;28;20299;-67
2021/10/13 03:18:04;;;;;;;;;;;1.70;98.80;;;;;;4999453;28;20006;-68
2021/10/13 03:20:30;;;;;;;;;;;1.60;98.80;;;;;;4995613;28;19979;-68
2021/10/13 03:22:57;;;;;;;;;;;1.70;98.80;;;;;;4997697;28;19910;-68
2021/10/13 03:25:24;;;;;;;;;;;1.60;98.80;;;;;;4992526;28;19977;-68
2021/10/13 03:27:49;;;;;;;;;;;1.60;98.80;;;;;;4994584;28;19916;-68
2021/10/13 03:30:15;;;;;;;;;;;1.50;98.80;;;;;;4992470;28;19913;-68
2021/10/13 03:32:42;;;;;;;;;;;1.50;98.80;;;;;;4995131;28;19910;-67
2021/10/13 03:35:08;;;;;;;;;;;1.40;98.80;;;;;;5001611;28;19932;-69
2021/10/13 03:37:33;;;;;;;;;;;1.50;98.90;;;;;;4993202;28;19914;-68
2021/10/13 03:39:59;;;;;;;;;;;1.40;98.90;;;;;;4998878;28;19915;-68
2021/10/13 03:42:24;;;;;;;;;;;1.40;98.90;;;;;;4993556;28;19997;-68
2021/10/13 03:44:50;;;;;;;;;;;1.30;98.80;;;;;;4996892;28;20004;-68
2021/10/13 03:47:15;;;;;;;;;;;1.30;98.90;;;;;;4993464;28;20356;-68
2021/10/13 03:49:41;;;;;;;;;;;1.40;98.90;;;;;;4996111;28;19917;-68
2021/10/13 03:52:06;;;;;;;;;;;1.30;98.90;;;;;;5007571;28;19917;-68
2021/10/13 03:54:32;;;;;;;;;;;1.30;98.90;;;;;;4997884;28;19913;-67
2021/10/13 03:56:57;;;;;;;;;;;1.30;98.90;;;;;;5004738;28;19917;-68
2021/10/13 03:59:23;;;;;;;;;;;1.30;98.80;;;;;;4999583;28;19909;-68
2021/10/13 04:01:48;;;;;;;;;;;1.30;98.80;;;;;;4997492;28;20026;-67
2021/10/13 04:04:14;;;;;;;;;;;1.30;98.90;;;;;;4995822;28;19910;-68
2021/10/13 04:06:39;;;;;;;;;;;1.30;98.90;;;;;;4999514;28;19909;-68
2021/10/13 04:09:05;;;;;;;;;;;1.30;98.90;;;;;;4997756;28;20268;-68
2021/10/13 04:11:31;;;;;;;;;;;1.30;98.90;;;;;;4998925;28;19913;-67
2021/10/13 04:13:56;;;;;;;;;;;1.30;98.90;;;;;;4996546;28;19914;-68
2021/10/13 04:16:22;;;;;;;;;;;1.30;98.90;;;;;;4996212;28;19975;-68
2021/10/13 04:18:47;;;;;;;;;;;1.30;98.90;;;;;;5001426;28;19913;-67
2021/10/13 04:21:13;;;;;;;;;;;1.30;98.90;;;;;;4993222;28;19909;-64
2021/10/13 04:23:38;;;;;;;;;;;1.30;98.90;;;;;;4990610;28;19909;-64
2021/10/13 04:26:04;;;;;;;;;;;1.30;98.90;;;;;;4979272;28;20095;-64
2021/10/13 04:28:29;;;;;;;;;;;1.40;98.90;;;;;;4991622;28;19952;-64
2021/10/13 04:30:55;;;;;;;;;;;1.40;98.90;;;;;;4994397;28;20349;-64
2021/10/13 04:33:20;;;;;;;;;;;1.40;99.00;;;;;;4997051;28;19917;-63
2021/10/13 04:35:46;;;;;;;;;;;1.40;98.90;;;;;;5007490;28;19913;-63
2021/10/13 04:38:11;;;;;;;;;;;1.50;98.90;;;;;;5000910;28;20017;-63
2021/10/13 04:40:37;;;;;;;;;;;1.50;98.90;;;;;;4994824;28;19992;-64
2021/10/13 04:43:02;;;;;;;;;;;1.40;98.90;;;;;;4994970;28;19910;-64
2021/10/13 04:45:28;;;;;;;;;;;1.50;99.00;;;;;;4996006;28;19913;-63
2021/10/13 04:47:53;;;;;;;;;;;1.60;99.00;;;;;;4995539;28;19916;-63
2021/10/13 04:50:19;;;;;;;;;;;1.60;99.00;;;;;;4995815;28;20426;-64
2021/10/13 04:52:44;;;;;;;;;;;1.60;99.00;;;;;;4992605;28;19926;-64
2021/10/13 04:55:11;;;;;;;;;;;1.60;98.90;;;;;;4993945;28;19914;-62
2021/10/13 04:57:37;;;;;;;;;;;1.60;99.00;;;;;;4996045;28;20353;-63
2021/10/13 05:00:03;;;;;;;;;;;1.60;99.00;;;;;;4985797;28;19995;-66
2021/10/13 05:02:29;;;;;;;;;;;1.60;99.00;;;;;;4996140;28;19925;-66
2021/10/13 05:04:54;;;;;;;;;;;1.70;99.00;;;;;;4997323;28;19917;-66
2021/10/13 05:07:20;;;;;;;;;;;1.70;99.00;;;;;;5002554;28;20411;-66
2021/10/13 05:09:45;;;;;;;;;;;1.70;99.00;;;;;;4993895;28;19918;-66
2021/10/13 05:12:11;;;;;;;;;;;1.60;99.00;;;;;;4993583;28;19910;-66
2021/10/13 05:14:36;;;;;;;;;;;1.70;99.00;;;;;;4997286;28;19921;-66
2021/10/13 05:17:02;;;;;;;;;;;1.80;99.10;;;;;;4998976;28;19932;-66
2021/10/13 05:19:27;;;;;;;;;;;1.70;99.00;;;;;;4997241;28;20355;-65
2021/10/13 05:21:53;;;;;;;;;;;1.70;98.90;;;;;;4996118;28;20356;-66
2021/10/13 05:24:18;;;;;;;;;;;1.70;98.90;;;;;;4995918;28;19913;-66
2021/10/13 05:26:44;;;;;;;;;;;1.60;98.80;;;;;;4991905;28;19914;-66
2021/10/13 05:29:09;;;;;;;;;;;1.60;98.90;;;;;;4991743;28;20000;-66
2021/10/13 05:31:35;;;;;;;;;;;1.60;98.80;;;;;;4998694;28;19917;-65
2021/10/13 05:34:00;;;;;;;;;;;1.60;98.90;;;;;;4998557;28;19968;-66
2021/10/13 05:36:26;;;;;;;;;;;1.60;98.90;;;;;;4995048;28;19909;-66
2021/10/13 05:38:51;;;;;;;;;;;1.60;98.90;;;;;;4996614;28;19913;-66
2021/10/13 05:41:17;;;;;;;;;;;1.60;98.90;;;;;;4995055;28;19948;-66
2021/10/13 05:43:42;;;;;;;;;;;1.60;98.80;;;;;;4994222;28;20504;-66
2021/10/13 05:46:08;;;;;;;;;;;1.60;98.90;;;;;;5002223;28;19913;-66
2021/10/13 05:48:33;;;;;;;;;;;1.60;98.90;;;;;;4998790;28;19921;-66
2021/10/13 05:50:59;;;;;;;;;;;1.70;99.00;;;;;;4998712;28;19964;-66
2021/10/13 05:53:25;;;;;;;;;;;1.60;98.90;;;;;;4994110;28;20364;-66
2021/10/13 05:55:50;;;;;;;;;;;1.70;98.90;;;;;;4997219;28;19914;-66
2021/10/13 05:58:18;;;;;;;;;;;1.70;98.90;;;;;;5001856;28;19916;-66
2021/10/13 06:00:46;;;;;;;;;;;1.70;99.00;;;;;;4998345;28;19909;-67
2021/10/13 06:03:11;;;;;;;;;;;1.70;99.00;;;;;;5000622;28;19913;-67
2021/10/13 06:05:38;;;;;;;;;;;1.80;99.00;;;;;;4992552;28;19910;-67
2021/10/13 06:08:04;;;;;;;;;;;1.80;99.00;;;;;;4999950;28;19916;-67
2021/10/13 06:10:29;;;;;;;;;;;2.00;99.10;;;;;;5000943;28;20281;-67
2021/10/13 06:12:55;;;;;;;;;;;2.00;99.00;;;;;;4998686;28;19971;-67
2021/10/13 06:15:20;;;;;;;;;;;2.00;99.00;;;;;;4995555;28;19918;-67
2021/10/13 06:17:46;;;;;;;;;;;2.10;98.90;;;;;;4994882;28;19996;-67
2021/10/13 06:20:12;;;;;;;;;;;2.10;98.90;;;;;;4999898;28;19909;-68
2021/10/13 06:22:40;;;;;;;;;;;2.10;98.90;;;;;;4991637;28;19949;-65
2021/10/13 06:25:06;;;;;;;;;;;2.10;99.00;;;;;;4998400;28;20316;-65
2021/10/13 06:27:32;;;;;;;;;;;2.10;98.90;;;;;;5005224;28;19920;-65
2021/10/13 06:29:57;;;;;;;;;;;2.20;98.90;;;;;;5014097;28;19910;-65
2021/10/13 06:32:23;;;;;;;;;;;2.20;99.00;;;;;;4996631;28;19918;-64
2021/10/13 06:34:48;;;;;;;;;;;2.30;99.00;;;;;;4997975;28;20335;-64
2021/10/13 06:37:14;;;;;;;;;;;2.40;99.10;;;;;;4998074;28;19914;-65
2021/10/13 06:39:39;;;;;;;;;;;2.50;99.10;;;;;;5004383;28;19913;-65
2021/10/13 06:42:05;;;;;;;;;;;2.60;99.10;;;;;;4997827;28;20383;-65
2021/10/13 06:44:30;;;;;;;;;;;2.60;99.10;;;;;;5002475;28;19917;-65
2021/10/13 06:46:56;;;;;;;;;;;2.70;99.00;;;;;;4998706;28;19916;-65
2021/10/13 06:49:21;;;;;;;;;;;2.80;99.10;;;;;;5001168;28;19916;-65
2021/10/13 06:51:47;;;;;;;;;;;2.80;99.00;;;;;;4997477;28;20020;-65
2021/10/13 06:54:13;;;;;;;;;;;2.80;99.00;;;;;;4999184;28;19921;-65
2021/10/13 06:56:38;;;;;;;;;;;2.80;99.00;;;;;;4995086;28;19917;-65
2021/10/13 06:59:03;;;;;;;;;;;2.90;99.00;;;;;;4996007;28;19978;-65
2021/10/13 07:01:29;;;;;;;;;;;2.90;98.90;;;;;;4998726;28;19909;-64
2021/10/13 07:03:55;;;;;;;;;;;3.00;99.00;;;;;;5002371;28;19913;-66
2021/10/13 07:06:20;;;;;;;;;;;3.10;99.00;;;;;;5002260;28;20372;-65
2021/10/13 07:08:46;;;;;;;;;;;3.10;99.00;;;;;;5003059;28;19913;-65
2021/10/13 07:11:12;;;;;;;;;;;3.30;99.00;;;;;;5001368;28;19932;-65
2021/10/13 07:13:38;;;;;;;;;;;3.30;98.80;;;;;;4996763;28;19913;-65
2021/10/13 07:16:03;;;;;;;;;;;3.40;99.00;;;;;;5003495;28;19917;-65
2021/10/13 07:18:29;;;;;;;;;;;3.40;98.90;;;;;;4998904;28;20330;-65
2021/10/13 07:20:54;;;;;;;;;;;3.50;98.90;;;;;;4998403;28;20327;-65
2021/10/13 07:23:20;;;;;;;;;;;3.60;98.80;;;;;;4998359;28;19953;-65
2021/10/13 07:25:45;;;;;;;;;;;3.70;98.80;;;;;;4994996;28;19971;-65
2021/10/13 07:28:12;;;;;;;;;;;3.80;98.80;;;;;;4993822;28;20406;-65
2021/10/13 07:30:38;;;;;;;;;;;3.90;98.90;;;;;;4986477;28;19909;-65
2021/10/13 07:33:05;;;;;;;;;;;4.00;98.80;;;;;;5007624;28;19962;-64
2021/10/13 07:35:31;;;;;;;;;;;4.10;98.80;;;;;;4999811;28;20327;-64
2021/10/13 07:37:57;;;;;;;;;;;4.20;98.70;;;;;;4995013;28;20223;-65
2021/10/13 07:40:23;;;;;;;;;;;4.30;98.60;;;;;;4999310;28;19963;-64
2021/10/13 07:42:49;;;;;;;;;;;4.50;98.60;;;;;;5000199;28;20296;-64
2021/10/13 07:45:15;;;;;;;;;;;4.80;98.60;;;;;;4997095;28;19910;-64
2021/10/13 07:47:41;;;;;;;;;;;4.80;98.30;;;;;;4999578;28;20272;-62
2021/10/13 07:50:06;;;;;;;;;;;5.00;98.40;;;;;;4999543;28;19924;-62
2021/10/13 07:52:32;;;;;;;;;;;5.10;98.20;;;;;;5001876;28;19913;-63
2021/10/13 07:54:57;;;;;;;;;;;5.30;98.20;;;;;;4997442;28;20161;-64
2021/10/13 07:57:23;;;;;;;;;;;5.40;98.10;;;;;;4996649;28;19909;-63
2021/10/13 07:59:50;;;;;;;;;;;5.50;98.00;;;;;;4994135;28;20522;-64
2021/10/13 08:02:15;;;;;;;;;;;5.70;98.00;;;;;;5006116;28;20004;-66
2021/10/13 08:04:41;;;;;;;;;;;5.60;97.50;;;;;;4997417;28;20008;-69
2021/10/13 08:07:07;;;;;;;;;;;5.50;97.30;;;;;;4999832;28;19917;-65
2021/10/13 08:09:33;;;;;;;;;;;5.60;97.60;;;;;;5006925;28;19917;-66
2021/10/13 08:11:58;;;;;;;;;;;5.60;97.40;;;;;;5007278;28;20411;-63
2021/10/13 08:14:24;;;;;;;;;;;5.80;97.70;;;;;;5002227;28;19960;-65
2021/10/13 08:16:49;;;;;;;;;;;5.80;97.60;;;;;;4996181;28;19910;-64
2021/10/13 08:19:15;;;;;;;;;;;6.00;97.60;;;;;;4994884;28;19914;-63
2021/10/13 08:21:40;;;;;;;;;;;6.10;97.50;;;;;;5001147;28;20332;-63
2021/10/13 08:24:06;;;;;;;;;;;6.30;97.40;;;;;;4996210;28;19918;-64
2021/10/13 08:26:31;;;;;;;;;;;6.30;97.00;;;;;;4992564;28;19910;-64
2021/10/13 08:28:57;;;;;;;;;;;6.30;97.00;;;;;;4993245;28;19913;-62
2021/10/13 08:31:22;;;;;;;;;;;6.40;97.00;;;;;;5003265;28;19909;-63
2021/10/13 08:33:49;;;;;;;;;;;6.40;96.70;;;;;;5000604;28;19968;-62
2021/10/13 08:36:14;;;;;;;;;;;6.40;96.50;;;;;;5001576;28;19909;-63
2021/10/13 08:38:40;;;;;;;;;;;6.60;96.80;;;;;;4997863;28;19921;-66
2021/10/13 08:41:05;;;;;;;;;;;6.50;96.40;;;;;;4996166;28;19917;-64
2021/10/13 08:43:31;;;;;;;;;;;6.60;96.40;;;;;;4996396;28;19994;-63
2021/10/13 08:45:57;;;;;;;;;;;6.70;96.50;;;;;;4995114;28;19909;-63
2021/10/13 08:48:23;;;;;;;;;;;6.60;96.40;;;;;;5002604;28;19913;-63
2021/10/13 08:50:49;;;;;;;;;;;6.70;96.80;;;;;;4995187;28;20364;-64
2021/10/13 08:53:17;;;;;;;;;;;6.70;96.70;;;;;;4991057;28;20406;-65
2021/10/13 08:55:43;;;;;;;;;;;6.80;96.90;;;;;;4991379;28;19932;-64
2021/10/13 08:58:16;;;;;;;;;;;6.90;97.10;;;;;;4989392;28;19910;-65
2021/10/13 09:00:44;;;;;;;;;;;7.10;97.20;;;;;;4988979;28;19924;-66
2021/10/13 09:03:24;;;;;;;;;;;7.20;97.20;;;;;;4993581;28;19913;-66
2021/10/13 09:05:49;;;;;;;;;;;7.30;97.00;;;;;;4995002;28;19916;-66
2021/10/13 09:08:16;;;;;;;;;;;7.30;96.90;;;;;;4999659;28;19918;-66
2021/10/13 09:10:41;;;;;;;;;;;7.50;97.10;;;;;;4992517;28;20213;-62
2021/10/13 09:13:15;;;;;;;;;;;7.70;97.10;;;;;;5001563;28;19992;-64
2021/10/13 09:15:46;;;;;;;;;;;7.80;96.60;;;;;;5000219;28;20304;-64
2021/10/13 09:18:11;;;;;;;;;;;8.10;96.70;;;;;;4989223;28;19910;-64
2021/10/13 09:20:38;;;;;;;;;;;8.10;96.20;;;;;;4987422;28;19967;-63
2021/10/13 09:23:29;;;;;;;;;;;8.20;96.30;;;;;;4991605;28;19916;-63
2021/10/13 09:26:11;;;;;;;;;;;8.50;95.50;;;;;;4993450;28;19920;-63
2021/10/13 09:28:37;;;;;;;;;;;8.60;95.70;;;;;;4994557;28;20342;-63
2021/10/13 09:31:15;;;;;;;;;;;8.80;95.40;;;;;;5000181;28;19910;-64
2021/10/13 09:33:53;;;;;;;;;;;9.00;95.30;;;;;;4996183;28;19914;-63
2021/10/13 09:36:19;;;;;;;;;;;9.60;94.80;;;;;;4989779;28;19997;-63
2021/10/13 09:38:44;;;;;;;;;;;9.70;93.00;;;;;;4995442;28;19925;-63
2021/10/13 09:41:10;;;;;;;;;;;9.80;93.40;;;;;;4993409;28;19964;-64
2021/10/13 09:43:36;;;;;;;;;;;10.10;92.70;;;;;;4994031;28;19913;-63
2021/10/13 09:46:12;;;;;;;;;;;10.40;91.00;;;;;;4994785;28;19910;-64
2021/10/13 09:48:41;;;;;;;;;;;10.20;90.90;;;;;;4994906;28;20387;-64
2021/10/13 09:51:21;;;;;;;;;;;10.20;91.60;;;;;;4998261;28;19917;-63
2021/10/13 09:53:48;;;;;;;;;;;10.30;91.30;;;;;;4988554;28;20288;-62
2021/10/13 09:56:29;;;;;;;;;;;10.30;91.20;;;;;;4997554;28;19913;-62
2021/10/13 09:59:08;;;;;;;;;;;10.40;90.30;;;;;;4991201;28;19909;-63
2021/10/13 10:01:33;;;;;;;;;;;10.50;90.90;;;;;;4996088;28;19952;-64
2021/10/13 10:03:59;;;;;;;;;;;10.40;91.00;;;;;;4998387;28;19953;-63
2021/10/13 10:06:27;;;;;;;;;;;10.50;90.70;;;;;;5002364;28;20024;-63
2021/10/13 10:08:52;;;;;;;;;;;10.40;89.80;;;;;;4999388;28;20310;-64
2021/10/13 10:11:28;;;;;;;;;;;10.50;90.00;;;;;;4996906;28;19910;-64
2021/10/13 10:13:54;;;;;;;;;;;10.50;90.20;;;;;;4995658;28;19913;-64
2021/10/13 10:16:38;;;;;;;;;;;10.60;90.60;;;;;;5000857;28;19916;-63
2021/10/13 10:19:23;;;;;;;;;;;10.60;90.30;;;;;;4988692;28;19951;-64
2021/10/13 10:21:50;;;;;;;;;;;10.50;89.80;;;;;;4992740;28;19956;-64
2021/10/13 10:24:29;;;;;;;;;;;10.50;90.60;;;;;;4994049;28;20031;-64
2021/10/13 10:27:13;;;;;;;;;;;10.60;90.30;;;;;;4994200;28;19909;-64
2021/10/13 10:29:39;;;;;;;;;;;10.70;90.00;;;;;;4998157;28;20375;-64
2021/10/13 10:32:14;;;;;;;;;;;10.70;89.50;;;;;;5002421;28;19913;-63
2021/10/13 10:34:59;;;;;;;;;;;10.60;89.40;;;;;;5004552;28;20363;-63
2021/10/13 10:37:35;;;;;;;;;;;10.60;89.60;;;;;;4987376;28;19920;-62
2021/10/13 10:40:04;;;;;;;;;;;10.60;89.90;;;;;;4997510;28;20005;-64
2021/10/13 10:42:45;;;;;;;;;;;10.60;90.30;;;;;;4996318;28;19915;-64
2021/10/13 10:45:12;;;;;;;;;;;10.70;90.70;;;;;;4998205;28;19909;-64
2021/10/13 10:47:52;;;;;;;;;;;10.50;90.80;;;;;;5000725;28;19913;-63
2021/10/13 10:50:36;;;;;;;;;;;10.60;90.70;;;;;;5000006;28;19917;-62
2021/10/13 10:53:06;;;;;;;;;;;10.80;90.70;;;;;;5002732;28;19971;-62
2021/10/13 10:55:36;;;;;;;;;;;10.80;90.10;;;;;;5002286;28;19920;-63
2021/10/13 10:58:20;;;;;;;;;;;10.80;90.10;;;;;;5006623;28;20367;-64
2021/10/13 11:00:46;;;;;;;;;;;11.00;90.60;;;;;;4994030;28;20364;-64
2021/10/13 11:03:30;;;;;;;;;;;11.20;90.20;;;;;;4993450;28;19909;-64
2021/10/13 11:05:56;;;;;;;;;;;11.10;89.40;;;;;;4996350;28;19921;-63
2021/10/13 11:08:21;;;;;;;;;;;11.00;89.90;;;;;;5005367;28;19909;-63
2021/10/13 11:10:47;;;;;;;;;;;11.00;89.50;;;;;;4999968;28;19909;-63
2021/10/13 11:13:12;;;;;;;;;;;11.00;89.50;;;;;;4999468;28;19917;-65
2021/10/13 11:15:39;;;;;;;;;;;11.00;89.80;;;;;;5000286;28;19976;-63
2021/10/13 11:18:17;;;;;;;;;;;11.30;90.00;;;;;;4994807;28;19925;-64
2021/10/13 11:20:43;;;;;;;;;;;11.60;89.10;;;;;;5004706;28;19963;-64
2021/10/13 11:23:11;;;;;;;;;;;11.80;87.50;;;;;;5000349;28;19913;-65
2021/10/13 11:25:37;;;;;;;;;;;11.90;87.30;;;;;;4999450;28;19999;-63
2021/10/13 11:28:02;;;;;;;;;;;11.90;87.90;;;;;;5001937;28;19909;-63
2021/10/13 11:30:29;;;;;;;;;;;12.10;88.00;;;;;;4998409;28;19920;-63
2021/10/13 11:32:55;;;;;;;;;;;12.00;87.40;;;;;;4997991;28;20401;-65
2021/10/13 11:35:21;;;;;;;;;;;12.20;87.20;;;;;;4996856;28;19948;-64
2021/10/13 11:37:54;;;;;;;;;;;12.10;86.20;;;;;;4992675;28;19996;-64
2021/10/13 11:40:20;;;;;;;;;;;12.10;85.90;;;;;;4999010;28;19924;-64
2021/10/13 11:42:46;;;;;;;;;;;12.20;85.50;;;;;;5000713;28;19909;-65
2021/10/13 11:45:13;;;;;;;;;;;12.40;84.70;;;;;;5004025;28;19975;-63
2021/10/13 11:47:39;;;;;;;;;;;12.50;84.80;;;;;;5014258;28;19905;-65
2021/10/13 11:50:06;;;;;;;;;;;12.50;84.60;;;;;;5003727;28;19920;-63
2021/10/13 11:52:31;;;;;;;;;;;12.70;85.00;;;;;;5005438;28;19952;-64
2021/10/13 11:55:10;;;;;;;;;;;13.10;81.70;;;;;;4994195;28;19957;-63
2021/10/13 11:57:37;;;;;;;;;;;13.70;80.20;;;;;;4998267;28;20004;-65
2021/10/13 12:00:11;;;;;;;;;;;14.20;77.90;;;;;;4999784;28;19984;-64
2021/10/13 12:02:37;;;;;;;;;;;14.30;78.20;;;;;;5003782;28;19909;-65
2021/10/13 12:05:07;;;;;;;;;;;14.50;77.00;;;;;;5009167;28;19964;-65
2021/10/13 12:07:44;;;;;;;;;;;14.20;77.20;;;;;;4993843;28;19960;-64
2021/10/13 12:10:10;;;;;;;;;;;13.60;78.80;;;;;;4998110;28;19913;-63
2021/10/13 12:12:35;;;;;;;;;;;13.40;80.00;;;;;;4997307;28;19996;-63
2021/10/13 12:15:14;;;;;;;;;;;13.20;80.20;;;;;;4996828;28;20408;-65
2021/10/13 12:17:40;;;;;;;;;;;13.20;79.90;;;;;;5001532;28;19960;-63
2021/10/13 12:20:14;;;;;;;;;;;13.10;80.00;;;;;;4994862;28;20367;-65
2021/10/13 12:22:44;;;;;;;;;;;13.00;79.40;;;;;;5006771;28;20356;-63
2021/10/13 12:25:42;;;;;;;;;;;13.00;80.80;;;;;;4997870;28;20287;-64
2021/10/13 12:28:15;;;;;;;;;;;13.00;80.20;;;;;;4959743;28;19980;-65
2021/10/13 12:30:41;;;;;;;;;;;13.00;81.70;;;;;;4999986;28;19925;-64
2021/10/13 12:33:08;;;;;;;;;;;12.90;80.30;;;;;;5006568;28;19922;-65
2021/10/13 12:35:34;;;;;;;;;;;12.60;80.60;;;;;;4999312;28;19980;-64
2021/10/13 12:38:01;;;;;;;;;;;12.50;81.50;;;;;;4995174;28;19960;-64
2021/10/13 12:40:26;;;;;;;;;;;12.40;82.80;;;;;;4999166;28;20004;-64
2021/10/13 12:42:53;;;;;;;;;;;12.10;83.70;;;;;;4996233;28;20009;-64
2021/10/13 12:45:23;;;;;;;;;;;12.00;85.20;;;;;;4981330;28;19909;-64
2021/10/13 12:47:48;;;;;;;;;;;11.70;86.40;;;;;;5001459;28;20351;-64
2021/10/13 12:50:14;;;;;;;;;;;11.50;88.00;;;;;;4997066;28;20168;-64
2021/10/13 12:52:39;;;;;;;;;;;11.30;89.10;;;;;;5001929;28;19917;-64
2021/10/13 12:55:05;;;;;;;;;;;11.10;89.20;;;;;;5002070;28;19964;-63
2021/10/13 12:57:31;;;;;;;;;;;11.00;89.40;;;;;;5000021;28;19913;-64
2021/10/13 13:00:00;;;;;;;;;;;11.00;89.80;;;;;;4998634;28;20207;-64
2021/10/13 13:02:25;;;;;;;;;;;10.90;88.40;;;;;;4993984;28;19913;-65
2021/10/13 13:04:51;;;;;;;;;;;11.10;89.30;;;;;;4991581;28;19936;-64
2021/10/13 13:07:16;;;;;;;;;;;11.60;88.40;;;;;;5001557;28;19909;-65
2021/10/13 13:09:42;;;;;;;;;;;12.00;88.00;;;;;;5002917;28;19916;-64
2021/10/13 13:12:08;;;;;;;;;;;12.00;85.20;;;;;;5000587;28;20404;-66
2021/10/13 13:14:34;;;;;;;;;;;12.30;84.00;;;;;;5000748;28;19968;-65
2021/10/13 13:17:00;;;;;;;;;;;12.50;83.30;;;;;;5005556;28;20016;-65
2021/10/13 13:19:26;;;;;;;;;;;12.70;82.90;;;;;;4997319;28;20084;-66
2021/10/13 13:21:51;;;;;;;;;;;13.10;82.90;;;;;;5000424;28;19936;-66
2021/10/13 13:24:17;;;;;;;;;;;13.10;80.70;;;;;;4999897;28;19945;-66
2021/10/13 13:26:43;;;;;;;;;;;13.00;82.90;;;;;;5002553;28;19933;-66
2021/10/13 13:29:09;;;;;;;;;;;12.80;83.90;;;;;;4999043;28;20288;-65
2021/10/13 13:31:34;;;;;;;;;;;12.80;84.30;;;;;;4998505;28;19914;-66
2021/10/13 13:34:00;;;;;;;;;;;12.70;83.70;;;;;;4999448;28;19925;-66
2021/10/13 13:36:25;;;;;;;;;;;12.70;84.10;;;;;;5000067;28;20000;-66
2021/10/13 13:38:52;;;;;;;;;;;12.80;85.00;;;;;;5001216;28;23388;-66
2021/10/13 13:41:18;;;;;;;;;;;13.10;80.50;;;;;;5004168;28;19920;-66
2021/10/13 13:43:44;;;;;;;;;;;12.80;80.60;;;;;;5002286;28;19910;-66
2021/10/13 13:46:13;;;;;;;;;;;13.00;80.20;;;;;;5005948;28;19909;-66
2021/10/13 13:48:39;;;;;;;;;;;13.50;78.40;;;;;;5004559;28;19913;-66
2021/10/13 13:51:04;;;;;;;;;;;14.00;76.80;;;;;;5004702;28;19956;-65
2021/10/13 13:53:30;;;;;;;;;;;14.40;74.40;;;;;;4999623;28;19955;-65
2021/10/13 13:55:56;;;;;;;;;;;14.60;73.20;;;;;;5002742;28;19914;-66
2021/10/13 13:58:21;;;;;;;;;;;14.40;75.20;;;;;;4999177;28;19949;-65
2021/10/13 14:00:47;;;;;;;;;;;14.00;76.30;;;;;;4995893;28;19973;-64
2021/10/13 14:03:13;;;;;;;;;;;13.50;75.40;;;;;;5003878;28;20109;-66
2021/10/13 14:05:38;;;;;;;;;;;13.00;77.00;;;;;;4987326;28;19941;-66
2021/10/13 14:08:05;;;;;;;;;;;13.00;76.90;;;;;;4997649;28;19909;-66
2021/10/13 14:10:30;;;;;;;;;;;13.50;76.10;;;;;;5000167;28;20422;-66
2021/10/13 14:12:56;;;;;;;;;;;13.60;75.70;;;;;;5002135;28;19909;-65
2021/10/13 14:15:21;;;;;;;;;;;14.10;72.60;;;;;;5003381;28;19918;-66
2021/10/13 14:17:47;;;;;;;;;;;14.60;71.30;;;;;;5000606;28;19916;-66
2021/10/13 14:20:12;;;;;;;;;;;14.90;72.10;;;;;;5004218;28;19909;-66
2021/10/13 14:22:38;;;;;;;;;;;15.10;68.70;;;;;;4996628;28;19971;-66
2021/10/13 14:25:03;;;;;;;;;;;15.10;67.90;;;;;;4996663;28;19968;-67
2021/10/13 14:27:29;;;;;;;;;;;15.40;66.80;;;;;;4994219;28;20400;-67
2021/10/13 14:29:54;;;;;;;;;;;14.90;68.50;;;;;;4999936;28;19959;-66